Weather at Winton Airport

Public forecast

Using degrees Celsius for public forecast. Weather courtesy of forecast.io.

Closest aviation weather report (METAR) to Winton Airport

Closest report is Longreach Airport, 92.2 nm (170.7 km) SE. Retrieved 2021/06/21 10:00 UTC (49 minutes ago):

YLRE 211000Z AUTO 12008KT 9999 // NCD 14/M03 Q1020

Closest aviation forecast (TAF) to Winton Airport

Closest forecast is Mount Isa Airport, 225.3 nm (417.3 km) WNW. Retrieved 2021/06/21 06:03 UTC (5 hours ago):

TAF TAF YBMA 210406Z 2106/2118 14006KT CAVOK